createdAt,value
2018-03-20T00:00:27.065Z,20.29
2018-03-20T00:02:53.975Z,20.29
2018-03-20T00:05:20.888Z,20.28
2018-03-20T00:07:47.811Z,20.27
2018-03-20T00:10:14.739Z,20.27
2018-03-20T00:12:41.662Z,20.27
2018-03-20T00:15:08.597Z,20.26
2018-03-20T00:17:35.516Z,20.26
2018-03-20T00:20:02.450Z,20.26
2018-03-20T00:22:29.360Z,20.25
2018-03-20T00:24:56.300Z,20.26
2018-03-20T00:27:23.223Z,20.26
2018-03-20T00:29:50.140Z,20.25
2018-03-20T00:32:17.059Z,20.25
2018-03-20T00:34:43.979Z,20.24
2018-03-20T00:37:10.897Z,20.24
2018-03-20T00:39:37.818Z,20.24
2018-03-20T00:42:04.772Z,20.24
2018-03-20T00:44:31.698Z,20.23
2018-03-20T00:46:58.627Z,20.24
2018-03-20T00:49:25.559Z,20.23
2018-03-20T00:51:52.484Z,20.23
2018-03-20T00:54:19.407Z,20.23
2018-03-20T00:56:46.328Z,20.23
2018-03-20T00:59:13.278Z,20.23
2018-03-20T01:01:40.205Z,20.23
2018-03-20T01:04:07.123Z,20.23
2018-03-20T01:06:34.055Z,20.21
2018-03-20T01:09:00.988Z,20.21
2018-03-20T01:11:27.967Z,20.22
2018-03-20T01:13:54.853Z,20.21
2018-03-20T01:16:21.784Z,20.20
2018-03-20T01:18:48.725Z,20.20
2018-03-20T01:21:15.650Z,20.19
2018-03-20T01:23:42.582Z,20.19
2018-03-20T01:26:09.510Z,20.19
2018-03-20T01:28:36.443Z,20.19
2018-03-20T01:31:03.451Z,20.18
2018-03-20T01:33:30.377Z,20.18
2018-03-20T01:35:57.305Z,20.17
2018-03-20T01:38:24.236Z,20.16
2018-03-20T01:40:51.165Z,20.17
2018-03-20T01:43:18.090Z,20.16
2018-03-20T01:45:45.016Z,20.16
2018-03-20T01:48:11.968Z,20.15
2018-03-20T01:50:38.890Z,20.16
2018-03-20T01:53:05.815Z,20.15
2018-03-20T01:55:32.747Z,20.16
2018-03-20T01:57:59.679Z,20.15
2018-03-20T02:00:26.633Z,20.15
2018-03-20T02:02:53.562Z,20.15
2018-03-20T02:05:20.487Z,20.16
2018-03-20T02:07:47.415Z,20.14
2018-03-20T02:10:14.346Z,20.14
2018-03-20T02:12:41.286Z,20.15
2018-03-20T02:15:08.218Z,20.13
2018-03-20T02:17:35.181Z,20.13
2018-03-20T02:20:02.102Z,20.13
2018-03-20T02:22:29.027Z,20.13
2018-03-20T02:24:55.954Z,20.13
2018-03-20T02:27:22.887Z,20.12
2018-03-20T02:29:49.814Z,20.11
2018-03-20T02:32:16.742Z,20.12
2018-03-20T02:34:43.666Z,20.11
2018-03-20T02:37:10.597Z,20.10
2018-03-20T02:39:37.524Z,20.10
2018-03-20T02:42:04.472Z,20.11
2018-03-20T02:44:31.402Z,20.10
2018-03-20T02:46:58.321Z,20.08
2018-03-20T02:49:25.254Z,20.10
2018-03-20T02:51:52.179Z,20.09
2018-03-20T02:54:19.107Z,20.09
2018-03-20T02:56:46.033Z,20.09
2018-03-20T02:59:12.990Z,20.08
2018-03-20T03:01:39.918Z,20.08
2018-03-20T03:04:06.849Z,20.08
2018-03-20T03:06:33.803Z,20.08
2018-03-20T03:09:00.720Z,20.09
2018-03-20T03:11:27.640Z,20.07
2018-03-20T03:13:54.567Z,20.08
2018-03-20T03:16:21.484Z,20.08
2018-03-20T03:18:48.435Z,20.08
2018-03-20T03:21:15.358Z,20.10
2018-03-20T03:23:42.282Z,20.07
2018-03-20T03:26:09.219Z,20.07
2018-03-20T03:28:36.139Z,20.07
2018-03-20T03:31:03.092Z,20.06
2018-03-20T03:33:30.017Z,20.05
2018-03-20T03:35:56.970Z,20.05
2018-03-20T03:38:23.866Z,20.05
2018-03-20T03:40:50.783Z,20.05
2018-03-20T03:43:17.709Z,20.04
2018-03-20T03:45:44.629Z,20.03
2018-03-20T03:48:11.588Z,20.03
2018-03-20T03:50:38.552Z,20.03
2018-03-20T03:53:05.468Z,20.02
2018-03-20T03:55:32.388Z,20.02
2018-03-20T03:57:59.314Z,20.02
2018-03-20T04:00:26.273Z,20.01
2018-03-20T04:02:53.198Z,20.02
2018-03-20T04:05:20.115Z,20.00
2018-03-20T04:07:47.041Z,20.00
2018-03-20T04:10:13.957Z,20.00
2018-03-20T04:12:40.903Z,20.02
2018-03-20T04:15:07.815Z,20.02
2018-03-20T04:17:34.872Z,20.03
2018-03-20T04:20:01.894Z,20.02
2018-03-20T04:22:28.809Z,20.01
2018-03-20T04:24:55.736Z,20.01
2018-03-20T04:27:22.662Z,20.01
2018-03-20T04:29:49.611Z,19.99
2018-03-20T04:32:16.538Z,20.00
2018-03-20T04:34:43.471Z,19.98
2018-03-20T04:37:10.403Z,19.99
2018-03-20T04:39:37.332Z,19.97
2018-03-20T04:42:04.279Z,19.98
2018-03-20T04:44:31.197Z,19.97
2018-03-20T04:46:58.122Z,19.96
2018-03-20T04:49:25.047Z,19.97
2018-03-20T04:51:51.961Z,19.97
2018-03-20T04:54:18.880Z,19.97
2018-03-20T04:56:45.933Z,19.96
2018-03-20T04:59:12.935Z,19.95
2018-03-20T05:01:39.811Z,19.95
2018-03-20T05:04:06.733Z,19.94
2018-03-20T05:06:33.685Z,19.94
2018-03-20T05:09:00.608Z,19.95
2018-03-20T05:11:27.531Z,19.94
2018-03-20T05:13:54.460Z,19.94
2018-03-20T05:16:21.377Z,19.93
2018-03-20T05:18:48.392Z,19.94
2018-03-20T05:21:33.571Z,19.94
2018-03-20T05:24:00.504Z,19.92
2018-03-20T05:26:27.432Z,19.93
2018-03-20T05:28:54.373Z,19.94
2018-03-20T05:31:21.282Z,19.94
2018-03-20T05:33:48.206Z,19.93
2018-03-20T05:36:15.139Z,19.93
2018-03-20T05:38:42.083Z,19.94
2018-03-20T05:41:09.007Z,19.94
2018-03-20T05:43:35.935Z,19.95
2018-03-20T05:46:02.871Z,19.93
2018-03-20T05:48:39.107Z,19.93
2018-03-20T05:51:23.866Z,19.94
2018-03-20T05:53:50.824Z,19.95
2018-03-20T05:56:17.739Z,19.95
2018-03-20T05:58:44.651Z,19.96
2018-03-20T06:01:11.570Z,19.97
2018-03-20T06:03:38.474Z,19.98
2018-03-20T06:06:05.416Z,19.99
2018-03-20T06:08:32.331Z,20.00
2018-03-20T06:10:59.244Z,20.02
2018-03-20T06:13:26.163Z,20.06
2018-03-20T06:15:53.078Z,20.11
2018-03-20T06:18:19.995Z,20.15
2018-03-20T06:20:46.915Z,20.21
2018-03-20T06:23:13.848Z,20.26
2018-03-20T06:25:40.763Z,20.30
2018-03-20T06:28:07.672Z,20.37
2018-03-20T06:30:34.618Z,20.41
2018-03-20T06:33:01.536Z,20.45
2018-03-20T06:35:28.442Z,20.71
2018-03-20T06:37:55.360Z,20.64
2018-03-20T06:40:22.277Z,20.59
2018-03-20T06:42:49.191Z,20.55
2018-03-20T06:45:16.096Z,20.53
2018-03-20T06:47:43.033Z,20.53
2018-03-20T06:50:09.947Z,20.53
2018-03-20T06:52:36.858Z,20.54
2018-03-20T06:55:03.776Z,20.54
2018-03-20T06:57:30.685Z,20.53
2018-03-20T06:59:57.602Z,20.51
2018-03-20T07:02:24.515Z,20.49
2018-03-20T07:04:51.430Z,20.47
2018-03-20T07:07:18.370Z,20.48
2018-03-20T07:09:45.285Z,20.48
2018-03-20T07:12:12.191Z,20.52
2018-03-20T07:14:39.107Z,20.50
2018-03-20T07:17:06.024Z,20.49
2018-03-20T07:19:32.945Z,20.49
2018-03-20T07:21:59.859Z,20.52
2018-03-20T07:24:26.827Z,20.53
2018-03-20T07:26:53.704Z,20.54
2018-03-20T07:29:20.624Z,20.52
2018-03-20T07:31:47.542Z,20.55
2018-03-20T07:34:14.455Z,20.56
2018-03-20T07:36:41.420Z,20.59
2018-03-20T07:39:08.290Z,20.60
2018-03-20T07:41:35.240Z,20.74
2018-03-20T07:44:02.154Z,20.86
2018-03-20T07:46:29.072Z,20.87
2018-03-20T07:48:55.982Z,20.84
2018-03-20T07:51:22.894Z,20.85
2018-03-20T07:53:49.830Z,20.89
2018-03-20T07:56:16.749Z,20.91
2018-03-20T07:58:43.667Z,20.97
2018-03-20T08:01:10.625Z,21.03
2018-03-20T08:03:37.530Z,20.94
2018-03-20T08:06:04.441Z,20.93
2018-03-20T08:08:31.357Z,20.88
2018-03-20T08:10:58.271Z,19.19
2018-03-20T08:13:25.216Z,19.31
2018-03-20T08:15:52.126Z,19.78
2018-03-20T08:18:19.038Z,20.08
2018-03-20T08:20:45.956Z,20.25
2018-03-20T08:23:12.882Z,20.32
2018-03-20T08:25:39.824Z,20.42
2018-03-20T08:28:06.738Z,20.52
2018-03-20T08:30:33.649Z,20.71
2018-03-20T08:33:00.567Z,20.95
2018-03-20T08:35:27.483Z,21.04
2018-03-20T08:37:54.416Z,21.07
2018-03-20T08:40:21.343Z,21.12
2018-03-20T08:42:48.254Z,21.11
2018-03-20T08:45:15.201Z,21.17
2018-03-20T08:47:42.094Z,21.22
2018-03-20T08:50:09.034Z,21.17
2018-03-20T08:52:35.977Z,21.15
2018-03-20T08:55:02.867Z,21.16
2018-03-20T08:57:29.780Z,21.15
2018-03-20T08:59:56.694Z,21.13
2018-03-20T09:02:23.684Z,21.10
2018-03-20T09:04:50.611Z,21.07
2018-03-20T09:07:17.520Z,21.06
2018-03-20T09:09:44.448Z,21.03
2018-03-20T09:12:11.370Z,21.08
2018-03-20T09:14:38.305Z,21.09
2018-03-20T09:17:05.214Z,21.09
2018-03-20T09:19:32.129Z,21.08
2018-03-20T09:21:59.057Z,21.06
2018-03-20T09:24:26.040Z,21.04
2018-03-20T09:26:52.973Z,21.12
2018-03-20T09:29:19.852Z,21.21
2018-03-20T09:31:46.765Z,21.11
2018-03-20T09:34:13.691Z,21.10
2018-03-20T09:36:40.603Z,21.09
2018-03-20T09:39:07.542Z,21.08
2018-03-20T09:41:34.462Z,21.09
2018-03-20T09:44:01.386Z,21.09
2018-03-20T09:46:28.313Z,21.08
2018-03-20T09:48:55.226Z,21.05
2018-03-20T09:51:22.169Z,21.07
2018-03-20T09:53:49.084Z,21.06
2018-03-20T09:56:16.005Z,21.07
2018-03-20T09:58:42.939Z,21.01
2018-03-20T10:01:09.861Z,20.99
2018-03-20T10:03:36.802Z,20.97
2018-03-20T10:06:03.811Z,20.97
2018-03-20T10:08:30.715Z,20.94
2018-03-20T10:10:57.696Z,20.93
2018-03-20T10:13:24.641Z,20.93
2018-03-20T10:15:51.617Z,20.96
2018-03-20T10:18:18.568Z,21.02
2018-03-20T10:20:45.521Z,21.06
2018-03-20T10:23:12.497Z,21.05
2018-03-20T10:25:39.448Z,21.04
2018-03-20T10:28:06.396Z,21.03
2018-03-20T10:30:33.372Z,21.05
2018-03-20T10:33:00.333Z,21.06
2018-03-20T10:35:27.298Z,21.19
2018-03-20T10:37:54.271Z,21.20
2018-03-20T10:40:21.219Z,21.13
2018-03-20T10:42:48.138Z,21.08
2018-03-20T10:45:15.089Z,21.03
2018-03-20T10:47:42.015Z,20.99
2018-03-20T10:50:08.944Z,21.01
2018-03-20T10:52:36.001Z,21.05
2018-03-20T10:55:02.937Z,21.03
2018-03-20T10:57:29.861Z,21.06
2018-03-20T10:59:56.801Z,21.05
2018-03-20T11:02:33.036Z,21.04
2018-03-20T11:05:00.013Z,21.04
2018-03-20T11:07:26.942Z,21.05
2018-03-20T11:09:53.866Z,21.07
2018-03-20T11:12:20.807Z,21.05
2018-03-20T11:14:47.732Z,21.33
2018-03-20T11:17:14.685Z,21.14
2018-03-20T11:19:41.608Z,21.07
2018-03-20T11:22:08.536Z,21.05
2018-03-20T11:24:35.613Z,21.02
2018-03-20T11:27:02.508Z,20.99
2018-03-20T11:29:29.448Z,21.04
2018-03-20T11:31:56.378Z,21.07
2018-03-20T11:34:23.297Z,21.07
2018-03-20T11:36:50.265Z,21.08
2018-03-20T11:39:17.204Z,21.38
2018-03-20T11:41:44.130Z,21.53
2018-03-20T11:44:11.064Z,21.28
2018-03-20T11:46:37.990Z,21.56
2018-03-20T11:49:04.937Z,21.36
2018-03-20T11:51:31.869Z,21.23
2018-03-20T11:53:58.788Z,21.19
2018-03-20T11:56:25.713Z,21.20
2018-03-20T11:58:52.652Z,21.16
2018-03-20T12:01:19.578Z,21.47
2018-03-20T12:03:46.499Z,21.26
2018-03-20T12:06:13.448Z,21.20
2018-03-20T12:08:40.375Z,21.15
2018-03-20T12:11:07.305Z,21.15
2018-03-20T12:13:34.227Z,21.15
2018-03-20T12:16:01.172Z,21.14
2018-03-20T12:18:28.102Z,21.11
2018-03-20T12:20:55.022Z,21.09
2018-03-20T12:23:21.978Z,21.10
2018-03-20T12:25:48.897Z,21.09
2018-03-20T12:28:15.823Z,21.06
2018-03-20T12:30:42.748Z,21.05
2018-03-20T12:33:09.667Z,21.01
2018-03-20T12:35:36.610Z,20.99
2018-03-20T12:38:03.545Z,20.99
2018-03-20T12:40:30.455Z,21.02
2018-03-20T12:42:57.370Z,21.00
2018-03-20T12:45:24.288Z,21.01
2018-03-20T12:47:51.230Z,21.03
2018-03-20T12:50:18.144Z,21.07
2018-03-20T12:52:45.058Z,21.06
2018-03-20T12:55:11.989Z,21.06
2018-03-20T12:57:38.909Z,21.08
2018-03-20T13:00:06.345Z,21.09
2018-03-20T13:02:33.262Z,21.11
2018-03-20T13:05:00.181Z,21.13
2018-03-20T13:07:27.112Z,21.15
2018-03-20T13:09:54.028Z,21.14
2018-03-20T13:12:20.948Z,21.12
2018-03-20T13:14:47.876Z,21.11
2018-03-20T13:17:14.815Z,21.10
2018-03-20T13:19:41.738Z,21.10
2018-03-20T13:22:08.847Z,21.10
2018-03-20T13:24:35.714Z,21.11
2018-03-20T13:27:02.644Z,21.11
2018-03-20T13:29:29.628Z,21.47
2018-03-20T13:31:56.506Z,21.30
2018-03-20T13:34:23.428Z,21.23
2018-03-20T13:36:50.366Z,21.17
2018-03-20T13:39:17.297Z,21.11
2018-03-20T13:41:44.222Z,21.43
2018-03-20T13:44:11.131Z,21.22
2018-03-20T13:46:38.049Z,21.13
2018-03-20T13:49:05.005Z,21.10
2018-03-20T13:51:31.893Z,21.05
2018-03-20T13:53:58.823Z,21.01
2018-03-20T13:56:25.745Z,20.97
2018-03-20T13:58:52.666Z,20.96
2018-03-20T14:01:19.584Z,20.98
2018-03-20T14:03:46.502Z,20.95
2018-03-20T14:06:13.472Z,20.94
2018-03-20T14:08:40.396Z,20.93
2018-03-20T14:11:07.306Z,21.27
2018-03-20T14:13:34.227Z,21.09
2018-03-20T14:16:01.143Z,20.99
2018-03-20T14:18:28.069Z,20.94
2018-03-20T14:20:54.990Z,20.90
2018-03-20T14:23:21.978Z,20.92
2018-03-20T14:25:48.859Z,20.90
2018-03-20T14:28:15.780Z,20.85
2018-03-20T14:30:42.697Z,20.83
2018-03-20T14:33:09.618Z,20.83
2018-03-20T14:35:36.541Z,20.81
2018-03-20T14:38:03.467Z,20.85
2018-03-20T14:40:30.389Z,20.93
2018-03-20T14:42:57.313Z,21.01
2018-03-20T14:45:24.226Z,21.03
2018-03-20T14:47:51.148Z,21.01
2018-03-20T14:50:18.070Z,20.97
2018-03-20T14:52:44.990Z,20.93
2018-03-20T14:55:11.933Z,20.88
2018-03-20T14:57:38.861Z,20.86
2018-03-20T15:00:05.776Z,20.93
2018-03-20T15:02:32.701Z,20.96
2018-03-20T15:04:59.624Z,20.91
2018-03-20T15:07:26.548Z,20.87
2018-03-20T15:09:53.462Z,20.82
2018-03-20T15:12:20.437Z,20.80
2018-03-20T15:14:47.337Z,21.13
2018-03-20T15:17:14.257Z,20.86
2018-03-20T15:19:41.181Z,20.79
2018-03-20T15:22:08.101Z,20.78
2018-03-20T15:24:35.025Z,20.75
2018-03-20T15:27:01.949Z,20.72
2018-03-20T15:29:28.908Z,20.70
2018-03-20T15:31:55.841Z,20.67
2018-03-20T15:34:22.765Z,21.02
2018-03-20T15:36:49.689Z,20.90
2018-03-20T15:39:16.612Z,20.82
2018-03-20T15:41:43.556Z,20.79
2018-03-20T15:44:10.477Z,20.78
2018-03-20T15:46:37.396Z,20.78
2018-03-20T15:49:04.325Z,20.77
2018-03-20T15:51:31.266Z,20.76
2018-03-20T15:53:58.192Z,21.10
2018-03-20T15:56:25.121Z,20.91
2018-03-20T15:58:52.083Z,20.84
2018-03-20T16:01:19.004Z,20.80
2018-03-20T16:03:45.972Z,20.76
2018-03-20T16:06:12.881Z,20.75
2018-03-20T16:08:39.803Z,20.75
2018-03-20T16:11:06.728Z,20.75
2018-03-20T16:13:33.653Z,20.73
2018-03-20T16:16:00.577Z,20.67
2018-03-20T16:18:27.500Z,20.63
2018-03-20T16:20:54.420Z,20.64
2018-03-20T16:23:21.343Z,20.62
2018-03-20T16:25:48.258Z,20.59
2018-03-20T16:28:15.208Z,20.57
2018-03-20T16:30:42.128Z,20.56
2018-03-20T16:33:09.043Z,20.53
2018-03-20T16:35:35.987Z,20.53
2018-03-20T16:38:02.907Z,20.53
2018-03-20T16:40:29.837Z,20.52
2018-03-20T16:42:56.768Z,20.53
2018-03-20T16:45:23.681Z,20.88
2018-03-20T16:47:50.599Z,20.72
2018-03-20T16:50:17.516Z,20.65
2018-03-20T16:52:44.458Z,20.61
2018-03-20T16:55:11.376Z,20.59
2018-03-20T16:57:38.296Z,20.58
2018-03-20T17:00:06.216Z,20.57
2018-03-20T17:02:33.131Z,20.92
2018-03-20T17:05:00.047Z,20.76
2018-03-20T17:07:26.964Z,20.68
2018-03-20T17:09:53.879Z,20.64
2018-03-20T17:12:20.801Z,20.64
2018-03-20T17:14:47.723Z,20.64
2018-03-20T17:17:14.647Z,20.98
2018-03-20T17:19:41.564Z,20.77
2018-03-20T17:22:10.038Z,20.67
2018-03-20T17:24:37.884Z,20.64
2018-03-20T17:27:04.767Z,20.61
2018-03-20T17:29:31.687Z,20.60
2018-03-20T17:31:58.606Z,20.59
2018-03-20T17:34:26.477Z,20.57
2018-03-20T17:36:53.342Z,20.91
2018-03-20T17:39:20.255Z,20.72
2018-03-20T17:41:47.166Z,20.64
2018-03-20T17:44:14.091Z,20.59
2018-03-20T17:46:41.014Z,20.58
2018-03-20T17:49:07.928Z,20.55
2018-03-20T17:51:34.853Z,20.53
2018-03-20T17:54:01.780Z,20.51
2018-03-20T17:56:28.696Z,20.85
2018-03-20T17:58:55.646Z,20.67
2018-03-20T18:01:22.561Z,20.60
2018-03-20T18:03:49.483Z,20.56
2018-03-20T18:06:16.411Z,20.54
2018-03-20T18:08:43.820Z,20.90
2018-03-20T18:11:10.678Z,21.10
2018-03-20T18:13:37.593Z,20.81
2018-03-20T18:16:04.530Z,20.70
2018-03-20T18:18:31.454Z,20.64
2018-03-20T18:20:58.371Z,20.61
2018-03-20T18:23:27.591Z,20.59
2018-03-20T18:25:54.539Z,20.58
2018-03-20T18:28:21.507Z,20.57
2018-03-20T18:30:48.551Z,20.95
2018-03-20T18:33:15.473Z,20.76
2018-03-20T18:35:42.404Z,20.68
2018-03-20T18:38:09.343Z,20.64
2018-03-20T18:40:36.287Z,20.60
2018-03-20T18:43:03.232Z,20.59
2018-03-20T18:45:30.162Z,20.57
2018-03-20T18:47:57.078Z,20.55
2018-03-20T18:50:24.018Z,20.67
2018-03-20T18:52:50.975Z,21.19
2018-03-20T18:55:17.905Z,20.96
2018-03-20T18:57:44.824Z,21.37
2018-03-20T19:00:11.788Z,21.05
2018-03-20T19:02:38.711Z,20.91
2018-03-20T19:05:05.629Z,20.81
2018-03-20T19:07:32.556Z,20.76
2018-03-20T19:09:59.472Z,20.71
2018-03-20T19:12:26.419Z,20.71
2018-03-20T19:14:53.396Z,20.71
2018-03-20T19:17:20.372Z,20.70
2018-03-20T19:19:47.312Z,20.72
2018-03-20T19:22:14.259Z,20.68
2018-03-20T19:24:41.226Z,20.68
2018-03-20T19:27:08.167Z,20.65
2018-03-20T19:29:35.110Z,20.61
2018-03-20T19:32:02.116Z,20.60
2018-03-20T19:34:29.030Z,20.60
2018-03-20T19:36:56.038Z,20.59
2018-03-20T19:39:22.978Z,20.66
2018-03-20T19:41:49.903Z,20.68
2018-03-20T19:44:19.900Z,20.65
2018-03-20T19:46:46.821Z,20.61
2018-03-20T19:49:13.755Z,20.60
2018-03-20T19:51:40.659Z,20.58
2018-03-20T19:54:07.589Z,20.60
2018-03-20T19:56:34.500Z,20.59
2018-03-20T19:59:01.448Z,20.61
2018-03-20T20:01:28.363Z,20.65
2018-03-20T20:03:55.278Z,20.62
2018-03-20T20:06:22.224Z,20.62
2018-03-20T20:08:49.143Z,20.63
2018-03-20T20:11:16.057Z,20.60
2018-03-20T20:13:42.979Z,20.64
2018-03-20T20:16:09.893Z,20.65
2018-03-20T20:18:36.828Z,20.61
2018-03-20T20:21:03.748Z,21.11
2018-03-20T20:23:30.671Z,20.86
2018-03-20T20:25:57.595Z,20.75
2018-03-20T20:28:24.543Z,20.71
2018-03-20T20:30:51.464Z,20.66
2018-03-20T20:33:18.379Z,20.63
2018-03-20T20:35:45.332Z,20.61
2018-03-20T20:38:12.220Z,20.61
2018-03-20T20:40:39.134Z,20.60
2018-03-20T20:43:06.078Z,20.59
2018-03-20T20:45:32.999Z,20.58
2018-03-20T20:47:59.928Z,20.56
2018-03-20T20:50:26.870Z,20.56
2018-03-20T20:52:53.779Z,20.55
2018-03-20T20:55:20.724Z,20.55
2018-03-20T21:00:21.312Z,20.75
2018-03-20T21:02:48.252Z,21.13
2018-03-20T21:05:15.164Z,20.99
2018-03-20T21:07:42.090Z,21.16
2018-03-20T21:10:09.018Z,20.81
2018-03-20T21:13:15.363Z,20.45
2018-03-20T21:15:42.281Z,20.36
2018-03-20T21:18:09.226Z,20.31
2018-03-20T21:20:36.143Z,20.30
2018-03-20T21:23:03.059Z,20.30
2018-03-20T21:25:29.984Z,20.34
2018-03-20T21:27:57.039Z,20.33
2018-03-20T21:30:23.901Z,20.33
2018-03-20T21:32:50.822Z,20.32
2018-03-20T21:35:17.748Z,20.29
2018-03-20T21:37:44.667Z,20.31
2018-03-20T21:40:11.583Z,20.31
2018-03-20T21:42:38.550Z,20.31
2018-03-20T21:45:05.465Z,20.35
2018-03-20T21:47:32.390Z,20.36
2018-03-20T21:49:59.310Z,20.36
2018-03-20T21:52:26.260Z,20.36
2018-03-20T21:54:53.179Z,20.36
2018-03-20T21:57:20.101Z,20.37
2018-03-20T21:59:47.018Z,20.39
2018-03-20T22:02:13.931Z,20.40
2018-03-20T22:04:40.853Z,20.40
2018-03-20T22:07:07.770Z,20.39
2018-03-20T22:09:34.686Z,20.39
2018-03-20T22:12:01.631Z,20.39
2018-03-20T22:14:28.552Z,20.39
2018-03-20T22:16:55.474Z,20.38
2018-03-20T22:19:22.395Z,20.39
2018-03-20T22:21:49.343Z,20.38
2018-03-20T22:24:16.239Z,20.37
2018-03-20T22:26:43.154Z,20.39
2018-03-20T22:29:10.101Z,20.37
2018-03-20T22:31:37.014Z,20.33
2018-03-20T22:34:03.926Z,20.32
2018-03-20T22:36:30.846Z,20.32
2018-03-20T22:38:57.760Z,20.30
2018-03-20T22:41:24.681Z,20.30
2018-03-20T22:43:51.600Z,20.29
2018-03-20T22:46:18.513Z,20.28
2018-03-20T22:48:45.434Z,20.27
2018-03-20T22:51:12.360Z,20.26
2018-03-20T22:53:39.283Z,20.30
2018-03-20T22:56:06.200Z,20.28
2018-03-20T22:58:33.118Z,20.27
2018-03-20T23:01:00.033Z,20.28
2018-03-20T23:03:26.948Z,20.27
2018-03-20T23:05:53.919Z,20.27
2018-03-20T23:08:20.787Z,20.27
2018-03-20T23:10:47.731Z,20.27
2018-03-20T23:13:14.642Z,20.27
2018-03-20T23:15:41.565Z,20.28
2018-03-20T23:18:08.498Z,20.28
2018-03-20T23:20:35.406Z,20.31
2018-03-20T23:23:02.327Z,20.30
2018-03-20T23:25:29.241Z,20.30
2018-03-20T23:27:56.164Z,20.31
2018-03-20T23:30:23.074Z,20.31
2018-03-20T23:32:49.995Z,20.30
2018-03-20T23:35:16.939Z,20.31
2018-03-20T23:37:43.858Z,20.30
2018-03-20T23:40:10.769Z,20.30
2018-03-20T23:42:37.689Z,20.29
2018-03-20T23:45:04.613Z,20.28
2018-03-20T23:47:31.529Z,20.31
2018-03-20T23:49:58.442Z,20.31
2018-03-20T23:52:25.389Z,20.29
2018-03-20T23:54:52.303Z,20.29
2018-03-20T23:57:19.223Z,20.27
2018-03-20T23:59:46.138Z,20.27
